TimeEST,TemperatureF,Dew PointF,Humidity,Sea Level PressureIn,VisibilityMPH,Wind Direction,Wind SpeedMPH,Gust SpeedMPH,PrecipitationIn,Events,Conditions,WindDirDegrees,DateUTC
12:11 AM,24.8,17.6,74,30.16,-9999.0,NNW,21.9,32.2,N/A,,Partly Cloudy,330,2012-12-06 05:11:00
12:53 AM,25.0,17.1,72,30.21,10.0,NNW,19.6,33.4,N/A,,Clear,330,2012-12-06 05:53:00
1:53 AM,25.0,16.0,69,30.24,10.0,NNW,12.7,20.7,N/A,,Clear,330,2012-12-06 06:53:00
2:53 AM,24.1,16.0,71,30.28,-9999.0,NNW,9.2,20.7,N/A,,Clear,330,2012-12-06 07:53:00
3:53 AM,23.0,16.0,74,30.28,-9999.0,NNW,11.5,19.6,N/A,,Clear,330,2012-12-06 08:53:00
4:53 AM,23.0,15.1,72,30.29,10.0,NW,17.3,25.3,N/A,,Clear,320,2012-12-06 09:53:00
5:53 AM,21.9,15.1,75,30.31,10.0,NNW,16.1,25.3,N/A,,Clear,330,2012-12-06 10:53:00
6:53 AM,21.9,15.1,75,30.32,10.0,NNW,12.7,19.6,N/A,,Clear,330,2012-12-06 11:53:00
7:53 AM,21.9,15.1,75,30.33,10.0,NNW,12.7,20.7,N/A,,Clear,340,2012-12-06 12:53:00
8:53 AM,26.1,16.0,66,30.33,10.0,North,11.5,-,N/A,,Clear,350,2012-12-06 13:53:00
9:53 AM,30.9,15.1,52,30.35,10.0,Variable,3.5,-,N/A,,Clear,0,2012-12-06 14:53:00
10:53 AM,35.1,12.9,40,30.33,10.0,Calm,Calm,-,N/A,,Clear,0,2012-12-06 15:53:00
11:53 AM,36.0,16.0,44,30.30,10.0,SE,4.6,-,N/A,,Clear,130,2012-12-06 16:53:00
12:53 PM,37.9,15.1,39,30.27,10.0,Variable,3.5,-,N/A,,Clear,0,2012-12-06 17:53:00
1:53 PM,37.9,14.0,38,30.27,10.0,SE,4.6,-,N/A,,Clear,130,2012-12-06 18:53:00
2:53 PM,37.0,15.1,41,30.26,10.0,SE,5.8,-,N/A,,Clear,140,2012-12-06 19:53:00
3:53 PM,33.1,16.0,50,30.28,10.0,SE,4.6,-,N/A,,Clear,140,2012-12-06 20:53:00
4:53 PM,30.0,15.1,54,30.27,10.0,SSE,4.6,-,N/A,,Clear,150,2012-12-06 21:53:00
5:53 PM,28.9,16.0,58,30.28,10.0,Calm,Calm,-,N/A,,Clear,0,2012-12-06 22:53:00
6:53 PM,28.0,17.1,63,30.29,10.0,Calm,Calm,-,N/A,,Clear,0,2012-12-06 23:53:00
8:53 PM,26.1,17.1,69,30.27,10.0,SSE,5.8,-,N/A,,Clear,150,2012-12-07 01:53:00
9:53 PM,27.0,17.1,66,30.26,10.0,SE,5.8,-,N/A,,Clear,130,2012-12-07 02:53:00
10:53 PM,26.1,17.1,69,30.24,10.0,SSE,5.8,-,N/A,,Clear,160,2012-12-07 03:53:00
11:53 PM,27.0,17.1,66,30.23,10.0,South,5.8,-,N/A,,Clear,180,2012-12-07 04:53:00